Time;durP1;ratioP1;P1;durP2;ratioP2;P2;SDS_P1;SDS_P2;PMS_P1;PMS_P2;Temp;Humidity;BMP_temperature;BMP_pressure;BME280_temperature;BME280_humidity;BME280_pressure;Samples;Min_cycle;Max_cycle;Signal;HPM_P1;HPM_P2
2022/02/20 00:02:19;;;;;;;9.20;3.60;;;;;;;3.25;61.01;98922.80;109483;1271;22443;-59
2022/02/20 00:04:47;;;;;;;4.40;2.50;;;;;;;3.24;61.08;98927.20;109367;1271;137914;-59
2022/02/20 00:07:15;;;;;;;12.00;2.60;;;;;;;3.23;61.05;98928.45;109524;1270;22506;-59
2022/02/20 00:09:43;;;;;;;5.20;2.40;;;;;;;3.20;61.24;98932.48;109474;1271;137476;-59
2022/02/20 00:12:11;;;;;;;5.30;2.80;;;;;;;3.19;61.40;98932.83;109491;1271;22693;-59
2022/02/20 00:14:39;;;;;;;6.00;2.40;;;;;;;3.17;61.33;98938.75;109515;1273;23264;-59
2022/02/20 00:17:07;;;;;;;9.40;3.10;;;;;;;3.16;61.42;98935.46;109428;1270;136968;-59
2022/02/20 00:19:35;;;;;;;6.70;2.90;;;;;;;3.13;61.48;98936.23;109491;1271;22414;-59
2022/02/20 00:22:03;;;;;;;5.90;2.80;;;;;;;3.17;61.68;98943.59;109414;1271;136998;-59
2022/02/20 00:24:31;;;;;;;4.40;1.90;;;;;;;3.17;61.61;98942.30;109474;1273;22505;-59
2022/02/20 00:26:59;;;;;;;4.10;1.70;;;;;;;3.17;61.60;98945.86;109512;1271;22367;-59
2022/02/20 00:29:27;;;;;;;5.30;1.90;;;;;;;3.18;61.67;98950.81;109341;1271;137794;-59
2022/02/20 00:31:56;;;;;;;5.30;2.70;;;;;;;3.17;61.41;98954.20;109366;1273;22487;-59
2022/02/20 00:34:24;;;;;;;4.00;2.10;;;;;;;3.16;61.57;98953.54;109328;1273;137669;-59
2022/02/20 00:36:52;;;;;;;6.60;3.20;;;;;;;3.15;61.62;98952.27;109399;1273;22441;-59
2022/02/20 00:39:24;;;;;;;5.60;2.80;;;;;;;3.14;61.73;98958.09;109319;1273;137021;-59
2022/02/20 00:41:52;;;;;;;8.60;4.00;;;;;;;3.12;61.76;98963.73;109447;1273;23375;-59
2022/02/20 00:44:22;;;;;;;6.00;2.50;;;;;;;3.10;61.74;98965.66;109471;1272;22405;-59
2022/02/20 00:46:50;;;;;;;6.30;2.50;;;;;;;3.09;62.00;98965.46;109356;1273;137205;-59
2022/02/20 00:49:18;;;;;;;6.50;3.30;;;;;;;3.07;62.07;98967.14;109419;1273;22465;-59
2022/02/20 00:51:46;;;;;;;3.40;2.00;;;;;;;3.05;62.05;98968.40;109346;1273;137526;-59
2022/02/20 00:54:14;;;;;;;5.00;2.60;;;;;;;3.03;62.09;98967.55;109393;1273;22545;-59
2022/02/20 00:56:42;;;;;;;7.00;2.20;;;;;;;3.02;62.18;98976.20;109414;1273;22646;-59
2022/02/20 00:59:10;;;;;;;7.90;2.60;;;;;;;3.00;62.28;98972.69;109360;1273;138606;-59
2022/02/20 01:01:38;;;;;;;6.00;3.00;;;;;;;2.96;62.35;98976.45;109422;1273;22422;-59
2022/02/20 01:04:06;;;;;;;5.50;2.90;;;;;;;2.97;62.40;98984.96;109172;1274;138978;-59
2022/02/20 01:06:34;;;;;;;7.00;2.80;;;;;;;2.96;62.45;98992.22;109399;1272;22490;-59
2022/02/20 01:09:03;;;;;;;8.00;2.40;;;;;;;2.96;62.50;98989.77;109457;1271;23280;-59
2022/02/20 01:11:31;;;;;;;7.40;2.80;;;;;;;2.95;62.51;98994.88;109312;1273;136716;-59
2022/02/20 01:14:00;;;;;;;5.30;2.30;;;;;;;2.95;62.55;98994.80;109438;1273;22446;-59
2022/02/20 01:16:28;;;;;;;5.30;2.20;;;;;;;2.95;62.68;99002.45;109359;1273;137138;-59
2022/02/20 01:18:56;;;;;;;4.20;2.60;;;;;;;2.94;62.66;99010.70;109421;1273;22431;-59
2022/02/20 01:21:25;;;;;;;6.70;2.20;;;;;;;2.93;62.82;99007.44;109333;1273;137571;-59
2022/02/20 01:23:53;;;;;;;5.80;2.40;;;;;;;2.92;62.86;99010.21;109433;1273;23155;-59
2022/02/20 01:26:21;;;;;;;4.90;2.10;;;;;;;2.92;62.93;99012.90;109421;1273;22361;-59
2022/02/20 01:28:49;;;;;;;6.50;3.00;;;;;;;2.93;63.06;99012.64;109251;1273;138596;-59
2022/02/20 01:31:17;;;;;;;5.80;2.40;;;;;;;2.92;63.13;99011.63;109432;1270;22479;-59
2022/02/20 01:33:45;;;;;;;5.70;2.40;;;;;;;2.93;63.03;99017.29;109439;1270;137591;-59
2022/02/20 01:36:13;;;;;;;8.00;2.90;;;;;;;2.93;63.17;99023.16;109479;1270;23254;-59
2022/02/20 01:38:43;;;;;;;6.30;2.10;;;;;;;2.96;63.34;99021.78;109377;1273;22508;-59
2022/02/20 01:41:11;;;;;;;4.70;2.40;;;;;;;2.97;63.48;99026.77;105394;1273;139100;-59
2022/02/20 01:43:40;;;;;;;3.90;2.30;;;;;;;2.99;63.40;99035.83;109340;1273;23809;-58
2022/02/20 01:46:09;;;;;;;5.80;2.60;;;;;;;2.99;63.24;99033.26;109028;1273;163274;-59
2022/02/20 01:49:24;;;;;;;6.80;2.30;;;;;;;3.04;63.43;99038.43;102080;1304;546530;-59
2022/02/20 01:51:52;;;;;;;5.30;2.20;;;;;;;3.04;63.41;99041.23;103717;1287;136865;-59
2022/02/20 01:54:20;;;;;;;5.50;3.00;;;;;;;3.06;63.53;99044.29;103770;1287;25164;-58
2022/02/20 01:56:51;;;;;;;6.60;2.30;;;;;;;3.07;63.55;99048.58;103776;1290;23143;-59
2022/02/20 01:59:38;;;;;;;6.10;2.80;;;;;;;3.07;63.79;99049.61;103601;1288;138099;-59
2022/02/20 02:02:25;;;;;;;7.60;2.50;;;;;;;3.07;63.78;99049.82;103689;1287;168176;-59
2022/02/20 02:05:00;;;;;;;5.80;2.20;;;;;;;3.07;63.59;99055.08;103889;1287;136793;-59
2022/02/20 02:07:31;;;;;;;5.80;2.80;;;;;;;3.06;63.75;99054.63;103950;1287;23996;-59
2022/02/20 02:10:18;;;;;;;6.30;2.60;;;;;;;3.06;63.87;99050.65;103851;1287;136696;-59
2022/02/20 02:13:03;;;;;;;8.30;2.80;;;;;;;3.07;63.75;99055.82;103938;1287;22761;-59
2022/02/20 02:15:54;;;;;;;4.20;2.00;;;;;;;3.04;63.87;99057.41;103885;1284;137974;-59
2022/02/20 02:18:42;;;;;;;5.00;2.70;;;;;;;3.02;63.75;99058.29;103976;1286;22787;-59
2022/02/20 02:21:28;;;;;;;;;;;;;;;3.00;63.90;99052.39;108229;1284;137532;-59
2022/02/20 02:23:59;;;;;;;7.60;2.40;;;;;;;2.95;63.92;99054.78;108342;1285;22452;-59
2022/02/20 02:26:50;;;;;;;6.70;2.00;;;;;;;2.94;64.05;99049.98;108365;1285;22450;-59
2022/02/20 02:29:22;;;;;;;5.50;2.40;;;;;;;2.91;64.15;99053.16;108245;1284;137789;-59
2022/02/20 02:31:50;;;;;;;5.40;2.30;;;;;;;2.92;64.29;99061.53;108288;1285;22472;-58
2022/02/20 02:34:19;;;;;;;6.00;2.40;;;;;;;2.92;64.13;99060.30;108217;1286;138946;-59
2022/02/20 02:36:51;;;;;;;5.10;2.20;;;;;;;2.92;64.43;99057.89;108311;1286;22554;-59
2022/02/20 02:39:19;;;;;;;5.30;1.90;;;;;;;2.94;64.40;99065.01;108278;1285;138050;-59
2022/02/20 02:41:47;;;;;;;6.20;2.20;;;;;;;2.97;64.55;99065.20;108338;1286;22460;-60
2022/02/20 02:44:15;;;;;;;5.20;2.60;;;;;;;2.99;64.67;99071.02;108386;1284;22543;-59
2022/02/20 02:46:43;;;;;;;7.10;3.40;;;;;;;3.01;64.62;99067.13;108275;1286;138148;-59
2022/02/20 02:49:11;;;;;;;6.60;2.50;;;;;;;3.03;64.64;99070.23;108365;1284;22438;-59
2022/02/20 02:51:39;;;;;;;5.60;2.10;;;;;;;3.04;64.61;99068.55;108279;1285;137876;-59
2022/02/20 02:54:10;;;;;;;5.20;2.20;;;;;;;3.04;64.61;99071.98;108409;1284;22428;-59
2022/02/20 02:56:42;;;;;;;8.10;2.60;;;;;;;3.02;64.58;99065.36;108393;1285;23213;-59
2022/02/20 02:59:10;;;;;;;7.20;2.70;;;;;;;3.01;64.47;99067.28;108828;1277;137143;-59
2022/02/20 03:01:39;;;;;;;5.70;2.30;;;;;;;2.99;64.38;99069.58;108920;1279;22429;-59
2022/02/20 03:04:07;;;;;;;6.30;2.50;;;;;;;2.96;64.56;99069.92;108901;1277;138571;-59
2022/02/20 03:06:35;;;;;;;5.10;2.30;;;;;;;2.94;64.63;99077.27;109172;1277;23278;-59
2022/02/20 03:09:08;;;;;;;7.70;2.80;;;;;;;2.91;64.62;99078.61;109187;1277;22503;-59
2022/02/20 03:11:38;;;;;;;7.20;3.20;;;;;;;2.87;64.68;99079.48;108853;1279;136640;-59
2022/02/20 03:14:09;;;;;;;8.00;2.70;;;;;;;2.83;64.72;99081.12;108909;1278;23190;-59
2022/02/20 03:16:37;;;;;;;5.20;2.30;;;;;;;2.79;64.82;99080.73;108817;1279;138474;-59
2022/02/20 03:19:08;;;;;;;8.10;2.80;;;;;;;2.76;64.84;99086.95;108932;1279;22539;-59
2022/02/20 03:21:36;;;;;;;5.10;2.60;;;;;;;2.72;64.92;99088.83;108885;1279;137983;-59
2022/02/20 03:24:05;;;;;;;8.00;3.80;;;;;;;2.68;65.09;99091.04;108946;1277;22468;-59
2022/02/20 03:26:34;;;;;;;9.60;3.40;;;;;;;2.65;65.11;99095.77;108931;1279;22578;-59
2022/02/20 03:29:02;;;;;;;5.00;2.50;;;;;;;2.61;65.17;99100.00;108841;1279;138642;-59
2022/02/20 03:31:31;;;;;;;7.70;2.70;;;;;;;2.58;65.23;99106.21;108980;1277;22483;-59
2022/02/20 03:33:59;;;;;;;9.10;2.80;;;;;;;2.55;65.39;99106.90;108800;1279;138308;-58
2022/02/20 03:36:31;;;;;;;4.30;2.30;;;;;;;2.54;65.53;99109.71;108926;1278;22514;-59
2022/02/20 03:38:59;;;;;;;7.70;2.80;;;;;;;2.53;65.66;99110.80;109003;1277;22452;-59
2022/02/20 03:41:29;;;;;;;11.50;2.90;;;;;;;2.51;65.63;99115.52;108835;1279;138629;-59
2022/02/20 03:43:57;;;;;;;7.40;3.10;;;;;;;2.50;65.85;99114.23;108982;1279;22582;-59
2022/02/20 03:46:36;;;;;;;7.80;3.00;;;;;;;2.50;66.01;99116.34;108823;1279;137451;-59
2022/02/20 03:49:04;;;;;;;6.70;2.70;;;;;;;2.52;66.13;99116.50;108935;1279;22297;-59
2022/02/20 03:51:50;;;;;;;9.20;3.00;;;;;;;2.52;66.24;99117.16;108915;1277;138416;-59
2022/02/20 03:54:19;;;;;;;10.60;3.30;;;;;;;2.52;66.34;99121.30;108914;1280;22630;-59
2022/02/20 03:56:47;;;;;;;9.20;2.40;;;;;;;2.50;66.28;99114.20;109012;1277;22504;-59
2022/02/20 03:59:35;;;;;;;5.50;2.90;;;;;;;2.51;66.22;99119.82;108864;1277;136272;-59
2022/02/20 04:02:03;;;;;;;6.10;2.30;;;;;;;2.49;66.24;99128.50;108883;1279;22518;-59
2022/02/20 04:04:31;;;;;;;6.20;2.20;;;;;;;2.46;66.33;99129.80;108851;1278;137638;-59
2022/02/20 04:06:59;;;;;;;6.10;2.40;;;;;;;2.43;66.49;99130.63;109044;1277;22533;-59
2022/02/20 04:09:27;;;;;;;6.70;2.70;;;;;;;2.39;66.34;99129.52;108816;1278;137734;-59
2022/02/20 04:11:56;;;;;;;6.10;2.20;;;;;;;2.35;66.54;99125.39;108915;1279;22477;-59
2022/02/20 04:14:41;;;;;;;15.30;4.40;;;;;;;2.31;66.84;99128.53;108991;1277;22529;-59
2022/02/20 04:17:13;;;;;;;5.10;3.20;;;;;;;2.26;66.79;99124.38;108795;1279;137697;-59
2022/02/20 04:19:44;;;;;;;11.00;3.50;;;;;;;2.25;66.97;99122.06;108809;1280;23765;-59
2022/02/20 04:22:12;;;;;;;6.90;3.10;;;;;;;2.22;66.90;99124.64;108814;1279;136939;-59
2022/02/20 04:24:40;;;;;;;8.00;3.40;;;;;;;2.18;66.94;99130.48;108914;1279;23602;-59
2022/02/20 04:27:11;;;;;;;7.60;2.90;;;;;;;2.16;67.18;99131.66;108924;1279;22579;-59
2022/02/20 04:29:44;;;;;;;6.20;2.30;;;;;;;2.15;67.24;99128.16;108878;1277;138083;-59
2022/02/20 04:32:12;;;;;;;7.10;2.70;;;;;;;2.14;67.40;99129.48;109171;1276;22430;-59
2022/02/20 04:34:41;;;;;;;6.20;2.60;;;;;;;2.13;67.55;99131.71;108868;1277;136947;-58
2022/02/20 04:37:09;;;;;;;10.30;3.90;;;;;;;2.12;67.66;99129.90;109039;1277;22425;-59
2022/02/20 04:39:37;;;;;;;8.00;3.40;;;;;;;2.10;67.67;99130.52;107944;1279;137268;-58
2022/02/20 04:42:06;;;;;;;6.60;3.00;;;;;;;2.08;67.68;99133.84;104456;1277;22607;-59
2022/02/20 04:44:43;;;;;;;7.20;3.00;;;;;;;2.05;67.93;99134.05;109098;1277;23278;-59
2022/02/20 04:47:17;;;;;;;7.10;3.10;;;;;;;2.03;67.72;99134.11;108839;1277;137708;-59
2022/02/20 04:49:46;;;;;;;6.20;3.10;;;;;;;1.99;67.91;99134.96;109008;1277;22457;-58
2022/02/20 04:52:19;;;;;;;8.10;3.40;;;;;;;1.95;67.97;99137.27;108864;1277;138635;-58
2022/02/20 04:55:13;;;;;;;6.00;2.70;;;;;;;1.91;68.08;99139.48;108774;1277;22447;-59
2022/02/20 04:57:41;;;;;;;6.30;2.50;;;;;;;1.89;68.30;99141.58;108860;1279;136746;-59
2022/02/20 05:00:16;;;;;;;6.20;2.70;;;;;;;1.85;68.25;99148.02;109106;1277;22394;-59
2022/02/20 05:03:04;;;;;;;6.30;2.90;;;;;;;1.82;68.32;99156.00;109207;1276;22385;-58
2022/02/20 05:06:03;;;;;;;10.20;3.20;;;;;;;1.78;68.56;99157.73;108801;1276;138381;-59
2022/02/20 05:08:51;;;;;;;10.90;4.20;;;;;;;1.75;68.39;99161.33;109194;1276;22461;-59
2022/02/20 05:11:24;;;;;;;17.70;4.00;;;;;;;1.75;68.82;99165.13;109004;1276;139441;-59
2022/02/20 05:13:58;;;;;;;14.60;4.50;;;;;;;1.72;68.68;99165.55;109118;1276;22496;-59
2022/02/20 05:16:28;;;;;;;7.90;4.20;;;;;;;1.73;68.93;99173.66;108891;1276;139640;-59
2022/02/20 05:18:56;;;;;;;9.80;3.40;;;;;;;1.73;68.88;99179.73;109124;1276;22489;-59
2022/02/20 05:21:24;;;;;;;13.00;4.00;;;;;;;1.72;69.45;99185.56;109045;1276;22610;-59
2022/02/20 05:23:52;;;;;;;9.30;3.50;;;;;;;1.72;69.28;99187.34;109088;1276;137281;-59
2022/02/20 05:26:20;;;;;;;10.30;3.70;;;;;;;1.72;69.45;99193.63;109165;1276;23726;-59
2022/02/20 05:28:54;;;;;;;8.70;3.40;;;;;;;1.72;69.33;99193.61;108928;1276;137567;-59
2022/02/20 05:31:23;;;;;;;10.20;3.80;;;;;;;1.69;69.40;99197.80;109110;1276;23311;-59
2022/02/20 05:33:56;;;;;;;11.90;3.20;;;;;;;1.72;69.44;99206.60;108941;1277;138147;-59
2022/02/20 05:36:24;;;;;;;8.80;3.90;;;;;;;1.72;69.48;99207.64;109047;1277;23265;-59
2022/02/20 05:39:14;;;;;;;8.50;3.80;;;;;;;1.73;69.53;99198.90;109033;1276;22555;-59
2022/02/20 05:41:42;;;;;;;9.20;3.40;;;;;;;1.71;69.44;99190.39;109089;1276;137995;-59
2022/02/20 05:44:11;;;;;;;9.60;4.00;;;;;;;1.75;69.65;99194.92;109138;1276;22503;-58
2022/02/20 05:46:42;;;;;;;8.90;3.80;;;;;;;1.76;69.46;99200.05;108912;1276;137846;-58
2022/02/20 05:49:14;;;;;;;10.60;4.10;;;;;;;1.75;69.62;99204.52;109041;1276;22497;-57
2022/02/20 05:51:56;;;;;;;11.10;4.10;;;;;;;1.84;69.69;99209.27;109102;1276;139591;-60
2022/02/20 05:54:32;;;;;;;9.10;3.00;;;;;;;1.88;69.60;99208.02;108947;1277;22650;-57
2022/02/20 05:57:00;;;;;;;8.60;3.00;;;;;;;1.92;69.61;99210.23;109062;1276;22648;-60
2022/02/20 05:59:30;;;;;;;10.90;3.20;;;;;;;1.97;69.62;99221.39;108904;1276;138066;-58
2022/02/20 06:01:58;;;;;;;6.60;2.70;;;;;;;2.02;69.48;99216.23;109031;1276;22488;-60
2022/02/20 06:04:28;;;;;;;8.90;2.80;;;;;;;2.06;69.34;99213.63;108883;1276;138190;-58
2022/02/20 06:07:03;;;;;;;6.50;3.00;;;;;;;2.12;69.18;99221.81;109086;1276;22689;-58
2022/02/20 06:09:56;;;;;;;8.70;4.20;;;;;;;2.18;69.21;99225.16;108885;1275;137878;-58
2022/02/20 06:12:35;;;;;;;11.30;3.70;;;;;;;2.23;69.07;99228.59;109002;1277;22589;-58
2022/02/20 06:15:05;;;;;;;7.60;2.70;;;;;;;2.27;69.01;99229.66;109175;1276;22470;-58
2022/02/20 06:17:51;;;;;;;7.60;3.60;;;;;;;2.31;68.95;99233.54;109074;1276;137906;-58
2022/02/20 06:20:30;;;;;;;9.70;4.20;;;;;;;2.35;68.90;99237.93;109240;1276;22265;-58
2022/02/20 06:23:16;;;;;;;9.10;3.90;;;;;;;2.39;68.88;99238.09;109090;1276;137883;-58
2022/02/20 06:26:09;;;;;;;8.40;4.00;;;;;;;2.43;68.68;99237.97;109059;1276;22559;-58
2022/02/20 06:28:38;;;;;;;10.70;4.00;;;;;;;2.45;68.65;99240.63;109087;1276;138267;-58
2022/02/20 06:31:06;;;;;;;9.80;3.60;;;;;;;2.47;68.47;99241.11;109237;1275;22411;-58
2022/02/20 06:33:36;;;;;;;8.40;3.40;;;;;;;2.51;68.43;99244.58;109068;1276;23608;-58
2022/02/20 06:36:08;;;;;;;8.20;3.40;;;;;;;2.54;68.59;99242.17;108974;1276;138316;-58
2022/02/20 06:38:38;;;;;;;14.70;5.90;;;;;;;2.62;68.35;99251.15;109068;1276;23632;-58
2022/02/20 06:41:09;;;;;;;12.80;3.80;;;;;;;2.66;68.13;99253.17;109070;1276;138376;-58
2022/02/20 06:43:43;;;;;;;6.50;3.10;;;;;;;2.71;68.35;99257.50;109007;1276;22267;-58
2022/02/20 06:46:29;;;;;;;9.50;3.60;;;;;;;2.77;68.33;99256.09;109092;1276;138286;-58
2022/02/20 06:49:16;;;;;;;4.60;2.30;;;;;;;2.83;68.24;99262.73;109253;1275;22703;-58
2022/02/20 06:51:54;;;;;;;8.20;3.10;;;;;;;2.91;68.24;99270.01;108934;1276;137163;-58
2022/02/20 06:54:55;;;;;;;8.60;3.20;;;;;;;2.97;68.01;99271.56;108831;1275;23268;-59
2022/02/20 06:57:43;;;;;;;8.20;2.90;;;;;;;3.01;67.76;99274.61;109157;1276;22560;-59
2022/02/20 07:00:14;;;;;;;5.20;2.70;;;;;;;3.05;67.78;99275.61;109142;1275;137831;-58
2022/02/20 07:02:43;;;;;;;7.10;3.00;;;;;;;3.10;67.73;99275.30;109205;1276;22489;-59
2022/02/20 07:05:11;;;;;;;6.50;3.00;;;;;;;3.15;67.54;99278.02;109045;1276;137202;-58
2022/02/20 07:07:39;;;;;;;7.60;2.70;;;;;;;3.20;67.45;99281.08;109165;1276;22428;-58
2022/02/20 07:10:07;;;;;;;4.50;2.20;;;;;;;3.25;67.23;99279.57;109025;1277;137467;-58
2022/02/20 07:12:37;;;;;;;12.10;3.70;;;;;;;3.30;67.37;99278.30;109179;1276;22413;-59
2022/02/20 07:15:05;;;;;;;6.10;2.60;;;;;;;3.35;67.14;99282.44;109194;1276;22450;-59
2022/02/20 07:17:34;;;;;;;10.80;2.70;;;;;;;3.39;66.79;99287.44;109152;1276;137085;-58
2022/02/20 07:20:03;;;;;;;10.10;2.90;;;;;;;3.42;66.58;99288.99;109244;1276;22507;-58
2022/02/20 07:22:33;;;;;;;8.10;3.00;;;;;;;3.44;66.74;99286.23;108952;1276;137951;-58
2022/02/20 07:25:01;;;;;;;7.40;3.00;;;;;;;3.49;66.61;99287.06;109181;1276;22447;-58
2022/02/20 07:27:41;;;;;;;9.20;3.10;;;;;;;3.53;66.25;99288.90;109254;1276;22487;-58
2022/02/20 07:30:10;;;;;;;9.80;3.10;;;;;;;3.55;66.10;99287.85;109085;1276;138818;-58
2022/02/20 07:32:38;;;;;;;6.60;3.30;;;;;;;3.59;66.17;99291.77;109154;1276;22390;-58
2022/02/20 07:35:07;;;;;;;14.00;5.20;;;;;;;3.64;66.48;99287.16;109095;1276;136934;-58
2022/02/20 07:37:35;;;;;;;8.90;4.00;;;;;;;3.71;66.43;99278.08;109221;1276;22329;-58
2022/02/20 07:40:04;;;;;;;9.20;3.30;;;;;;;3.78;66.37;99270.46;109083;1276;137598;-58
2022/02/20 07:42:35;;;;;;;7.30;3.30;;;;;;;3.85;66.41;99262.46;109213;1276;23289;-58
2022/02/20 07:45:04;;;;;;;9.50;4.20;;;;;;;3.91;66.09;99260.39;109224;1276;23128;-58
2022/02/20 07:48:06;;;;;;;10.60;4.10;;;;;;;3.97;65.78;99261.85;109092;1276;138502;-58
2022/02/20 07:50:35;;;;;;;10.40;4.30;;;;;;;4.02;65.56;99263.92;108442;1283;22614;-58
2022/02/20 07:53:04;;;;;;;7.90;3.90;;;;;;;4.06;65.20;99264.45;108316;1283;137629;-60
2022/02/20 07:55:32;;;;;;;9.20;4.00;;;;;;;4.08;65.28;99262.48;108343;1284;22546;-58
2022/02/20 07:58:08;;;;;;;13.10;3.90;;;;;;;4.12;64.90;99256.61;108309;1283;137479;-60
2022/02/20 08:00:36;;;;;;;13.00;4.90;;;;;;;4.14;64.85;99263.59;108408;1283;22487;-57
2022/02/20 08:03:04;;;;;;;9.20;4.10;;;;;;;4.17;64.92;99264.93;108414;1283;22522;-59
2022/02/20 08:05:33;;;;;;;8.90;4.80;;;;;;;4.21;64.91;99259.45;108369;1283;137049;-58
2022/02/20 08:08:01;;;;;;;10.50;4.10;;;;;;;4.27;64.34;99260.85;108401;1283;22462;-58
2022/02/20 08:10:29;;;;;;;14.00;5.90;;;;;;;4.30;64.47;99262.52;108320;1283;137828;-58
2022/02/20 08:12:58;;;;;;;8.60;4.20;;;;;;;4.33;64.62;99263.63;108454;1283;22745;-58
2022/02/20 08:15:27;;;;;;;12.50;6.30;;;;;;;4.39;64.69;99264.83;108448;1283;23432;-58
2022/02/20 08:17:58;;;;;;;10.70;4.60;;;;;;;4.43;64.41;99269.17;108285;1283;137645;-58
2022/02/20 08:20:27;;;;;;;7.10;2.60;;;;;;;4.48;63.81;99273.35;108420;1283;22476;-58
2022/02/20 08:22:55;;;;;;;7.70;2.80;;;;;;;4.51;63.76;99271.98;108366;1283;137029;-58
2022/02/20 08:25:23;;;;;;;11.10;3.70;;;;;;;4.56;63.78;99270.03;108422;1283;22791;-58
2022/02/20 08:27:51;;;;;;;15.00;4.60;;;;;;;4.61;64.07;99274.62;109108;1275;140172;-58
2022/02/20 08:30:19;;;;;;;9.40;3.70;;;;;;;4.68;64.17;99272.79;109071;1276;22497;-58
2022/02/20 08:32:48;;;;;;;9.60;3.40;;;;;;;4.75;64.39;99276.52;109157;1274;22246;-58
2022/02/20 08:35:16;;;;;;;8.20;3.30;;;;;;;4.80;64.38;99265.88;109096;1276;138635;-59
2022/02/20 08:37:46;;;;;;;9.80;3.90;;;;;;;4.89;64.11;99264.56;109276;1276;22531;-59
2022/02/20 08:40:17;;;;;;;6.80;3.00;;;;;;;4.94;64.11;99264.64;109107;1276;137131;-58
2022/02/20 08:42:46;;;;;;;7.30;3.10;;;;;;;4.99;63.46;99262.89;109171;1276;22908;-59
2022/02/20 08:45:17;;;;;;;8.80;2.80;;;;;;;5.03;63.77;99266.41;109226;1276;22481;-59
2022/02/20 08:47:45;;;;;;;8.70;3.50;;;;;;;5.08;63.83;99270.94;109083;1276;137966;-59
2022/02/20 08:50:13;;;;;;;9.30;4.00;;;;;;;5.13;62.77;99272.84;109221;1276;22446;-59
2022/02/20 08:52:45;;;;;;;9.40;3.20;;;;;;;5.15;62.40;99268.56;109084;1276;137433;-59
2022/02/20 08:55:13;;;;;;;6.00;3.20;;;;;;;5.15;61.84;99268.24;109230;1276;22763;-59
2022/02/20 08:57:43;;;;;;;12.70;4.60;;;;;;;5.15;61.75;99269.11;109204;1276;22232;-59
2022/02/20 09:00:12;;;;;;;9.00;3.50;;;;;;;5.14;61.26;99271.79;109055;1276;136957;-58
2022/02/20 09:02:40;;;;;;;5.50;2.90;;;;;;;5.14;61.72;99272.48;109188;1275;22481;-59
2022/02/20 09:05:09;;;;;;;10.20;4.00;;;;;;;5.17;61.95;99270.25;109113;1276;138042;-59
2022/02/20 09:07:38;;;;;;;15.40;6.20;;;;;;;5.20;61.81;99269.40;109077;1276;23434;-59
2022/02/20 09:10:08;;;;;;;9.70;4.10;;;;;;;5.24;62.06;99273.08;109081;1276;137449;-59
2022/02/20 09:12:45;;;;;;;7.70;2.90;;;;;;;5.31;62.34;99273.17;109240;1276;23720;-59
2022/02/20 09:15:14;;;;;;;8.60;3.10;;;;;;;5.36;62.20;99273.38;109225;1276;22659;-59
2022/02/20 09:17:42;;;;;;;10.90;3.60;;;;;;;5.45;61.96;99277.95;109064;1276;138799;-59
2022/02/20 09:20:10;;;;;;;7.30;3.00;;;;;;;5.51;61.37;99281.17;109060;1278;23666;-58
2022/02/20 09:22:41;;;;;;;9.40;3.40;;;;;;;5.55;61.12;99284.90;109167;1276;137977;-58
2022/02/20 09:25:10;;;;;;;8.90;3.80;;;;;;;5.59;61.02;99286.91;109105;1276;22415;-59
2022/02/20 09:27:42;;;;;;;9.30;3.20;;;;;;;5.62;60.37;99287.54;109131;1276;22289;-59
2022/02/20 09:30:11;;;;;;;8.60;3.20;;;;;;;5.64;60.34;99288.20;109099;1276;137826;-59
2022/02/20 09:32:42;;;;;;;7.10;3.40;;;;;;;5.65;60.35;99294.49;109208;1276;22473;-59
2022/02/20 09:35:11;;;;;;;11.10;4.20;;;;;;;5.67;60.65;99296.79;109072;1276;138566;-59
2022/02/20 09:37:39;;;;;;;7.90;3.30;;;;;;;5.72;60.39;99300.59;109178;1276;23374;-59
2022/02/20 09:40:08;;;;;;;7.90;3.80;;;;;;;5.76;60.42;99302.63;109135;1276;137198;-58
2022/02/20 09:42:37;;;;;;;12.20;3.60;;;;;;;5.80;60.02;99301.88;109155;1276;22492;-59
2022/02/20 09:45:06;;;;;;;11.90;3.10;;;;;;;5.85;60.11;99299.55;109178;1276;23125;-59
2022/02/20 09:47:39;;;;;;;11.80;4.60;;;;;;;5.91;60.15;99293.41;109065;1276;137197;-59
2022/02/20 09:50:07;;;;;;;10.50;4.10;;;;;;;5.98;59.96;99286.27;109266;1276;22765;-59
2022/02/20 09:52:36;;;;;;;9.90;3.30;;;;;;;6.02;59.52;99285.75;109040;1276;137759;-59
2022/02/20 09:55:05;;;;;;;6.00;2.60;;;;;;;6.06;59.45;99279.31;109203;1276;22486;-58
2022/02/20 09:57:34;;;;;;;7.70;3.40;;;;;;;6.11;59.17;99272.77;109202;1276;22413;-59
2022/02/20 10:00:05;;;;;;;7.70;3.70;;;;;;;6.13;58.06;99272.52;109082;1276;137433;-58
2022/02/20 10:02:42;;;;;;;6.30;2.70;;;;;;;6.15;58.26;99269.17;109196;1276;22465;-59
2022/02/20 10:05:20;;;;;;;14.20;6.40;;;;;;;6.16;57.75;99266.58;109109;1276;137660;-59
2022/02/20 10:07:50;;;;;;;15.70;5.70;;;;;;;6.16;57.80;99260.09;109217;1276;23281;-59
2022/02/20 10:10:20;;;;;;;9.10;3.30;;;;;;;6.17;57.68;99256.65;109087;1276;138206;-59
2022/02/20 10:12:57;;;;;;;8.00;3.10;;;;;;;6.19;57.83;99254.58;109163;1276;23669;-58
2022/02/20 10:15:36;;;;;;;7.80;3.20;;;;;;;6.22;57.94;99252.59;109196;1276;22604;-59
2022/02/20 10:18:26;;;;;;;9.50;3.10;;;;;;;6.24;57.41;99255.13;109086;1276;139001;-59
2022/02/20 10:21:25;;;;;;;10.40;3.70;;;;;;;6.25;57.08;99245.37;109203;1276;24557;-59
2022/02/20 10:24:12;;;;;;;6.40;2.70;;;;;;;6.27;57.07;99238.85;109044;1276;137232;-58
2022/02/20 10:27:06;;;;;;;9.90;4.40;;;;;;;6.28;56.75;99240.34;109137;1276;22520;-59
2022/02/20 10:30:07;;;;;;;9.20;3.70;;;;;;;6.29;56.47;99233.16;109095;1276;138852;-58
2022/02/20 10:32:36;;;;;;;10.10;4.60;;;;;;;6.29;57.05;99234.75;109321;1276;22498;-59
2022/02/20 10:35:14;;;;;;;10.00;4.40;;;;;;;6.30;56.70;99230.48;109094;1276;138841;-58
2022/02/20 10:37:43;;;;;;;12.20;4.40;;;;;;;6.29;56.36;99229.07;109192;1275;22477;-59
2022/02/20 10:40:28;;;;;;;7.40;4.20;;;;;;;6.30;56.25;99226.70;107244;1276;138403;-60
2022/02/20 10:42:58;;;;;;;8.50;3.40;;;;;;;6.32;56.61;99231.45;104769;1276;22551;-60
2022/02/20 10:45:37;;;;;;;7.90;3.80;;;;;;;6.35;56.90;99222.48;109218;1276;23143;-60
2022/02/20 10:48:14;;;;;;;7.90;3.10;;;;;;;6.42;57.03;99216.99;109070;1276;137187;-60
2022/02/20 10:50:42;;;;;;;8.00;2.90;;;;;;;6.50;56.89;99210.52;109097;1276;22469;-61
2022/02/20 10:53:11;;;;;;;13.30;4.40;;;;;;;6.56;56.30;99210.69;108948;1276;137449;-61
2022/02/20 10:55:39;;;;;;;9.90;3.80;;;;;;;6.59;55.54;99210.86;109154;1276;22521;-61
2022/02/20 10:58:09;;;;;;;6.70;3.20;;;;;;;6.59;55.69;99205.71;109123;1276;139174;-60
2022/02/20 11:00:47;;;;;;;11.60;3.60;;;;;;;6.56;55.27;99202.52;109245;1276;22394;-61
2022/02/20 11:03:16;;;;;;;10.90;3.80;;;;;;;6.54;55.97;99195.43;109161;1276;22666;-61
2022/02/20 11:05:44;;;;;;;6.60;3.10;;;;;;;6.58;56.01;99191.99;109011;1276;137416;-61
2022/02/20 11:08:13;;;;;;;7.00;3.60;;;;;;;6.61;55.86;99190.05;109232;1276;22544;-61
2022/02/20 11:10:41;;;;;;;8.80;3.80;;;;;;;6.64;55.78;99183.13;109158;1275;138129;-61
2022/02/20 11:13:11;;;;;;;6.10;3.00;;;;;;;6.67;55.42;99183.66;109035;1277;23358;-61
2022/02/20 11:15:40;;;;;;;6.40;3.10;;;;;;;6.69;55.57;99180.20;109056;1276;22484;-60
2022/02/20 11:18:10;;;;;;;11.00;3.40;;;;;;;6.71;55.18;99176.66;109122;1276;137950;-61
2022/02/20 11:20:39;;;;;;;7.20;2.90;;;;;;;6.71;54.87;99166.76;109206;1276;22467;-60
2022/02/20 11:23:08;;;;;;;7.00;2.90;;;;;;;6.71;54.95;99161.98;109113;1276;137775;-61
2022/02/20 11:25:36;;;;;;;8.40;3.10;;;;;;;6.71;55.05;99161.17;109214;1276;22525;-60
2022/02/20 11:28:05;;;;;;;8.10;3.20;;;;;;;6.72;54.71;99154.16;109128;1276;139146;-60
2022/02/20 11:30:34;;;;;;;8.60;3.50;;;;;;;6.72;54.80;99149.61;109191;1276;23461;-61
2022/02/20 11:33:04;;;;;;;8.50;2.70;;;;;;;6.76;55.14;99150.01;109188;1276;22712;-60
2022/02/20 11:35:33;;;;;;;7.20;3.20;;;;;;;6.81;55.03;99144.84;108925;1277;137201;-61
2022/02/20 11:38:25;;;;;;;9.20;3.10;;;;;;;6.86;54.76;99139.77;109059;1276;22423;-61
2022/02/20 11:41:02;;;;;;;9.00;3.70;;;;;;;6.91;54.40;99133.17;109084;1276;137221;-59
2022/02/20 11:43:45;;;;;;;9.10;3.40;;;;;;;6.93;54.21;99138.40;109230;1276;22484;-58
2022/02/20 11:46:15;;;;;;;6.10;3.00;;;;;;;6.99;53.53;99138.93;109126;1276;138867;-59
2022/02/20 11:49:01;;;;;;;9.80;3.30;;;;;;;7.01;53.26;99136.16;109211;1276;22445;-58
2022/02/20 11:51:30;;;;;;;6.50;2.90;;;;;;;7.01;53.05;99126.30;109191;1276;22436;-59
2022/02/20 11:54:18;;;;;;;8.10;3.60;;;;;;;7.00;52.60;99121.73;109085;1276;136986;-59